createdAt,value
2023-02-08T00:01:08.526Z,99986.31
2023-02-08T00:06:13.559Z,99982.34
2023-02-08T00:11:15.996Z,99981.91
2023-02-08T00:16:18.956Z,99964.34
2023-02-08T00:21:21.709Z,99960.59
2023-02-08T00:26:24.211Z,99957.75
2023-02-08T00:31:26.739Z,99956.97
2023-02-08T00:36:29.168Z,99947.97
2023-02-08T00:41:31.615Z,99945.63
2023-02-08T00:46:34.265Z,99938.03
2023-02-08T00:51:36.769Z,99952.22
2023-02-08T00:56:39.138Z,99939.47
2023-02-08T01:01:42.502Z,99952.25
2023-02-08T01:06:45.018Z,99959.19
2023-02-08T01:11:47.632Z,99958.88
2023-02-08T01:16:50.337Z,99960.75
2023-02-08T01:21:53.072Z,99960.13
2023-02-08T01:26:55.471Z,99955.59
2023-02-08T01:31:57.914Z,99951.13
2023-02-08T01:37:00.315Z,99936.13
2023-02-08T01:42:03.035Z,99940.06
2023-02-08T01:47:05.507Z,99939.91
2023-02-08T01:52:17.006Z,99926.06
2023-02-08T01:57:22.271Z,99930.03
2023-02-08T02:02:26.506Z,99924.13
2023-02-08T02:07:31.392Z,99921.22
2023-02-08T02:12:36.681Z,99927.75
2023-02-08T02:17:40.415Z,99909.66
2023-02-08T02:22:59.706Z,99906.78
2023-02-08T02:28:14.177Z,99894.53
2023-02-08T02:33:28.548Z,99898.13
2023-02-08T02:39:03.414Z,99895.91
2023-02-08T02:44:18.457Z,99893.28
2023-02-08T02:49:45.752Z,99891.88
2023-02-08T02:54:53.180Z,99893.88
2023-02-08T02:59:57.625Z,99896.75
2023-02-08T03:05:00.136Z,99906.38
2023-02-08T03:10:40.681Z,99904.00
2023-02-08T03:16:13.170Z,99897.13
2023-02-08T03:21:42.447Z,99885.22
2023-02-08T03:27:24.473Z,99895.56
2023-02-08T03:32:47.108Z,99901.16
2023-02-08T03:37:58.314Z,99903.88
2023-02-08T03:43:07.397Z,99899.22
2023-02-08T03:48:14.119Z,99897.25
2023-02-08T03:53:20.908Z,99901.16
2023-02-08T03:58:32.875Z,99902.00
2023-02-08T04:03:36.685Z,99890.09
2023-02-08T04:08:39.050Z,99900.09
2023-02-08T04:13:41.454Z,99884.88
2023-02-08T04:18:43.900Z,99897.81
2023-02-08T04:23:46.313Z,99891.16
2023-02-08T04:28:48.744Z,99888.34
2023-02-08T04:33:51.389Z,99894.47
2023-02-08T04:38:54.068Z,99891.31
2023-02-08T04:43:56.653Z,99885.59
2023-02-08T04:48:59.200Z,99874.88
2023-02-08T04:54:01.653Z,99879.66
2023-02-08T04:59:04.519Z,99867.81
2023-02-08T05:04:07.177Z,99870.31
2023-02-08T05:09:10.430Z,99868.06
2023-02-08T05:14:12.946Z,99863.94
2023-02-08T05:19:15.419Z,99861.78
2023-02-08T05:24:18.121Z,99865.09
2023-02-08T05:29:20.718Z,99857.41
2023-02-08T05:34:23.444Z,99856.28
2023-02-08T05:39:25.862Z,99872.09
2023-02-08T05:44:28.347Z,99865.25
2023-02-08T05:49:31.129Z,99873.03
2023-02-08T05:54:33.599Z,99873.38
2023-02-08T05:59:36.040Z,99876.91
2023-02-08T06:04:39.262Z,99884.72
2023-02-08T06:09:41.719Z,99882.47
2023-02-08T06:14:45.057Z,99894.06
2023-02-08T06:19:47.691Z,99881.84
2023-02-08T06:24:50.380Z,99883.06
2023-02-08T06:29:53.648Z,99892.06
2023-02-08T06:34:56.912Z,99885.19
2023-02-08T06:40:00.704Z,99886.75
2023-02-08T06:45:03.591Z,99894.56
2023-02-08T06:50:06.831Z,99882.06
2023-02-08T06:55:09.423Z,99889.13
2023-02-08T07:00:12.556Z,99880.78
2023-02-08T07:05:15.332Z,99892.84
2023-02-08T07:10:17.880Z,99899.22
2023-02-08T07:15:20.577Z,99904.44
2023-02-08T07:20:23.585Z,99911.63
2023-02-08T07:25:26.255Z,99906.63
2023-02-08T07:30:28.829Z,99905.31
2023-02-08T07:35:31.321Z,99905.47
2023-02-08T07:40:34.114Z,99907.00
2023-02-08T07:45:38.559Z,99903.63
2023-02-08T07:50:41.242Z,99904.56
2023-02-08T07:55:46.077Z,99899.56
2023-02-08T08:00:48.510Z,99905.22
2023-02-08T08:05:53.492Z,99904.91
2023-02-08T08:10:57.449Z,99903.34
2023-02-08T08:15:59.906Z,99912.44
2023-02-08T08:21:02.885Z,99908.09
2023-02-08T08:26:14.710Z,99899.63
2023-02-08T08:31:22.536Z,99907.81
2023-02-08T08:36:25.445Z,99907.88
2023-02-08T08:41:28.639Z,99905.44
2023-02-08T08:46:31.297Z,99903.81
2023-02-08T08:51:35.484Z,99892.97
2023-02-08T08:56:38.147Z,99898.09
2023-02-08T09:01:42.400Z,99889.63
2023-02-08T09:06:44.871Z,99888.41
2023-02-08T09:11:47.837Z,99882.06
2023-02-08T09:16:50.511Z,99882.06
2023-02-08T09:21:53.124Z,99882.53
2023-02-08T09:26:55.944Z,99878.75
2023-02-08T09:31:58.480Z,99877.25
2023-02-08T09:37:00.956Z,99874.47
2023-02-08T09:42:40.419Z,99877.34
2023-02-08T09:48:00.608Z,99885.47
2023-02-08T09:53:34.346Z,99874.84
2023-02-08T09:58:41.532Z,99866.16
2023-02-08T10:03:45.230Z,99864.47
2023-02-08T10:08:52.411Z,99854.38
2023-02-08T10:14:42.918Z,99857.00
2023-02-08T10:19:59.894Z,99855.88
2023-02-08T10:25:23.643Z,99852.25
2023-02-08T10:30:26.579Z,99849.88
2023-02-08T10:35:37.096Z,99832.56
2023-02-08T10:40:41.764Z,99833.03
2023-02-08T10:45:53.628Z,99824.09
2023-02-08T10:50:56.337Z,99829.50
2023-02-08T10:55:58.819Z,99826.53
2023-02-08T11:01:02.280Z,99816.88
2023-02-08T11:06:05.288Z,99813.03
2023-02-08T11:11:10.411Z,99804.78
2023-02-08T11:16:22.607Z,99811.75
2023-02-08T11:21:33.665Z,99798.44
2023-02-08T11:26:40.048Z,99782.34
2023-02-08T11:32:14.526Z,99766.75
2023-02-08T11:37:26.524Z,99761.69
2023-02-08T11:42:38.048Z,99751.03
2023-02-08T11:47:40.601Z,99747.66
2023-02-08T11:52:46.352Z,99748.41
2023-02-08T11:58:14.833Z,99742.09
2023-02-08T12:03:27.598Z,99737.94
2023-02-08T12:09:02.848Z,99728.84
2023-02-08T12:14:10.726Z,99722.38
2023-02-08T12:20:04.810Z,99711.31
2023-02-08T12:25:24.967Z,99707.97
2023-02-08T12:30:47.768Z,99698.78
2023-02-08T12:36:05.806Z,99693.00
2023-02-08T12:41:32.265Z,99693.84
2023-02-08T12:46:46.714Z,99688.69
2023-02-08T12:52:15.822Z,99665.88
2023-02-08T12:57:21.612Z,99656.03
2023-02-08T13:03:11.107Z,99639.97
2023-02-08T13:08:45.803Z,99639.22
2023-02-08T13:14:04.851Z,99627.81
2023-02-08T13:19:31.823Z,99619.34
2023-02-08T13:24:40.277Z,99615.09
2023-02-08T13:29:47.189Z,99619.00
2023-02-08T13:34:55.537Z,99598.69
2023-02-08T13:40:21.598Z,99599.44
2023-02-08T13:45:45.405Z,99608.06
2023-02-08T13:50:52.014Z,99608.41
2023-02-08T13:56:01.284Z,99606.63
2023-02-08T14:01:15.143Z,99609.38
2023-02-08T14:06:26.187Z,99607.28
2023-02-08T14:11:46.742Z,99615.13
2023-02-08T14:17:04.241Z,99613.28
2023-02-08T14:22:12.247Z,99613.38
2023-02-08T14:27:32.613Z,99619.88
2023-02-08T14:32:40.935Z,99608.13
2023-02-08T14:37:44.941Z,99612.50
2023-02-08T14:42:58.731Z,99615.84
2023-02-08T14:48:21.284Z,99611.97
2023-02-08T14:53:59.950Z,99606.25
2023-02-08T14:59:09.243Z,99600.06
2023-02-08T15:04:13.530Z,99599.31
2023-02-08T15:09:23.248Z,99604.03
2023-02-08T15:14:26.152Z,99608.81
2023-02-08T15:19:38.577Z,99612.06
2023-02-08T15:24:55.091Z,99615.59
2023-02-08T15:29:57.432Z,99610.84
2023-02-08T15:35:04.767Z,99604.31
2023-02-08T15:40:07.691Z,99605.88
2023-02-08T15:45:30.844Z,99598.94
2023-02-08T15:50:33.928Z,99603.75
2023-02-08T15:55:51.367Z,99592.81
2023-02-08T16:00:54.054Z,99600.22
2023-02-08T16:06:02.089Z,99612.31
2023-02-08T16:11:20.975Z,99619.00
2023-02-08T16:16:35.350Z,99612.66
2023-02-08T16:21:42.361Z,99613.53
2023-02-08T16:27:04.542Z,99607.22
2023-02-08T16:32:32.092Z,99617.47
2023-02-08T16:37:35.936Z,99612.91
2023-02-08T16:42:40.555Z,99614.09
2023-02-08T16:47:47.484Z,99624.19
2023-02-08T16:53:01.596Z,99613.28
2023-02-08T16:58:03.976Z,99616.19
2023-02-08T17:03:06.111Z,99625.03
2023-02-08T17:08:16.001Z,99625.22
2023-02-08T17:13:21.179Z,99630.47
2023-02-08T17:18:23.695Z,99642.50
2023-02-08T17:23:27.012Z,99639.72
2023-02-08T17:28:29.323Z,99647.91
2023-02-08T17:33:36.437Z,99651.88
2023-02-08T17:38:40.053Z,99649.91
2023-02-08T17:43:42.242Z,99647.44
2023-02-08T17:48:47.262Z,99664.16
2023-02-08T17:53:51.433Z,99663.69
2023-02-08T17:58:56.017Z,99664.94
2023-02-08T18:04:01.013Z,99663.59
2023-02-08T18:09:03.794Z,99662.19
2023-02-08T18:14:06.271Z,99658.41
2023-02-08T18:19:08.848Z,99654.16
2023-02-08T18:24:12.062Z,99657.88
2023-02-08T18:29:14.894Z,99651.34
2023-02-08T18:34:18.685Z,99652.34
2023-02-08T18:39:23.356Z,99656.06
2023-02-08T18:44:26.205Z,99655.91
2023-02-08T18:49:29.461Z,99650.53
2023-02-08T18:54:32.452Z,99652.34
2023-02-08T18:59:34.611Z,99652.53
2023-02-08T19:04:38.956Z,99648.50
2023-02-08T19:09:41.190Z,99650.31
2023-02-08T19:14:44.089Z,99651.34
2023-02-08T19:19:46.767Z,99644.78
2023-02-08T19:24:48.906Z,99637.06
2023-02-08T19:29:56.356Z,99645.72
2023-02-08T19:34:58.934Z,99633.53
2023-02-08T19:40:01.573Z,99629.03
2023-02-08T19:45:04.278Z,99638.59
2023-02-08T19:50:07.283Z,99641.88
2023-02-08T19:55:10.921Z,99637.94
2023-02-08T20:00:22.872Z,99629.59
2023-02-08T20:05:26.389Z,99630.16
2023-02-08T20:10:29.085Z,99638.13
2023-02-08T20:15:31.739Z,99633.72
2023-02-08T20:20:34.803Z,99623.03
2023-02-08T20:25:37.406Z,99615.72
2023-02-08T20:30:41.569Z,99617.31
2023-02-08T20:35:44.441Z,99618.34
2023-02-08T20:40:47.107Z,99612.25
2023-02-08T20:45:49.560Z,99613.16
2023-02-08T20:50:52.169Z,99610.44
2023-02-08T20:55:54.769Z,99614.75
2023-02-08T21:00:57.614Z,99613.13
2023-02-08T21:06:00.133Z,99613.66
2023-02-08T21:11:03.072Z,99599.78
2023-02-08T21:16:07.431Z,99602.00
2023-02-08T21:21:10.493Z,99611.44
2023-02-08T21:26:16.049Z,99612.59
2023-02-08T21:31:22.184Z,99608.59
2023-02-08T21:36:25.543Z,99607.94
2023-02-08T21:41:31.441Z,99598.56
2023-02-08T21:46:34.023Z,99599.53
2023-02-08T21:51:55.892Z,99588.16
2023-02-08T21:57:03.437Z,99588.03
2023-02-08T22:02:08.283Z,99579.06
2023-02-08T22:07:10.705Z,99589.22
2023-02-08T22:12:18.506Z,99575.16
2023-02-08T22:17:20.990Z,99588.31
2023-02-08T22:22:24.245Z,99588.69
2023-02-08T22:27:27.773Z,99588.00
2023-02-08T22:32:30.638Z,99577.03
2023-02-08T22:37:34.064Z,99576.59
2023-02-08T22:42:38.055Z,99581.09
2023-02-08T22:47:40.609Z,99577.91
2023-02-08T22:52:43.148Z,99570.56
2023-02-08T22:57:45.798Z,99574.47
2023-02-08T23:02:48.269Z,99567.91
2023-02-08T23:07:50.691Z,99566.88
2023-02-08T23:12:53.154Z,99565.00
2023-02-08T23:17:55.687Z,99553.38
2023-02-08T23:22:58.354Z,99558.88
2023-02-08T23:28:01.131Z,99555.56
2023-02-08T23:33:03.762Z,99562.50
2023-02-08T23:38:06.194Z,99562.28
2023-02-08T23:43:09.267Z,99555.41
2023-02-08T23:48:11.703Z,99563.47
2023-02-08T23:53:14.125Z,99550.84
2023-02-08T23:58:16.548Z,99549.09
